AAL400 KDCA-KCLT
Flight info
| Callsign | AAL400 |
|---|---|
| Flight time | 0h 55m |
| Altitude | 36000 |
| Route | SCRAM6 GLANC AIROW CHSLY6 |
| Aircraft | A319/M-SDE3FGHIRWY/LB1 |
Departure
| Time | 2026-05-04 13:30 |
|---|---|
| Airport | Ronald Reagan Washington National Airport (KDCA) |
Arrival
| Time | 2026-05-04 14:25 |
|---|---|
| Airport | Charlotte Douglas International Airport (KCLT) |
| Time | Latitude | Longitude | Altitude | Speed | Heading |
|---|---|---|---|---|---|
| 2026-05-04 12:11 | 38.84730 | -77.04221 | 22 ft | 0 kts | 225° |
| 2026-05-04 13:14 | 38.84732 | -77.04218 | 23 ft | 2 kts | 226° |
| 2026-05-04 13:14 | 38.84742 | -77.04204 | 23 ft | 2 kts | 225° |
| 2026-05-04 13:15 | 38.84753 | -77.04191 | 23 ft | 1 kts | 225° |
| 2026-05-04 13:15 | 38.84758 | -77.04184 | 23 ft | 1 kts | 203° |
| 2026-05-04 13:15 | 38.84766 | -77.04182 | 23 ft | 0 kts | 160° |
| 2026-05-04 13:15 | 38.84764 | -77.04182 | 23 ft | 2 kts | 164° |
| 2026-05-04 13:16 | 38.84724 | -77.04160 | 23 ft | 7 kts | 156° |
| 2026-05-04 13:16 | 38.84682 | -77.04135 | 23 ft | 4 kts | 156° |
| 2026-05-04 13:16 | 38.84669 | -77.04128 | 23 ft | 0 kts | 156° |
| 2026-05-04 13:17 | 38.84669 | -77.04127 | 23 ft | 0 kts | 156° |
| 2026-05-04 13:20 | 38.84667 | -77.04127 | 23 ft | 1 kts | 156° |
| 2026-05-04 13:20 | 38.84651 | -77.04118 | 23 ft | 3 kts | 156° |
| 2026-05-04 13:21 | 38.84623 | -77.04102 | 23 ft | 5 kts | 152° |
| 2026-05-04 13:21 | 38.84609 | -77.04081 | 23 ft | 0 kts | 113° |
| 2026-05-04 13:21 | 38.84609 | -77.04067 | 23 ft | 3 kts | 71° |
| 2026-05-04 13:21 | 38.84634 | -77.04040 | 23 ft | 4 kts | 31° |
| 2026-05-04 13:22 | 38.84668 | -77.04018 | 23 ft | 6 kts | 27° |
| 2026-05-04 13:22 | 38.84713 | -77.03988 | 23 ft | 8 kts | 26° |
| 2026-05-04 13:22 | 38.84769 | -77.03954 | 23 ft | 9 kts | 17° |
| 2026-05-04 13:22 | 38.84843 | -77.03946 | 23 ft | 11 kts | 360° |
| 2026-05-04 13:23 | 38.84929 | -77.03955 | 23 ft | 12 kts | 355° |
| 2026-05-04 13:23 | 38.85022 | -77.03966 | 23 ft | 14 kts | 354° |
| 2026-05-04 13:23 | 38.85126 | -77.03976 | 23 ft | 15 kts | 355° |
| 2026-05-04 13:23 | 38.85236 | -77.03986 | 23 ft | 16 kts | 356° |
| 2026-05-04 13:24 | 38.85352 | -77.03996 | 23 ft | 16 kts | 354° |
| 2026-05-04 13:24 | 38.85465 | -77.04009 | 23 ft | 16 kts | 355° |
| 2026-05-04 13:24 | 38.85553 | -77.04032 | 23 ft | 12 kts | 349° |
| 2026-05-04 13:25 | 38.85702 | -77.04050 | 23 ft | 11 kts | 355° |
| 2026-05-04 13:25 | 38.85785 | -77.04058 | 23 ft | 12 kts | 355° |
| 2026-05-04 13:25 | 38.85873 | -77.04063 | 23 ft | 8 kts | 357° |
| 2026-05-04 13:25 | 38.85912 | -77.04058 | 23 ft | 3 kts | 26° |
| 2026-05-04 13:26 | 38.85934 | -77.04028 | 23 ft | 5 kts | 60° |
| 2026-05-04 13:26 | 38.85957 | -77.03981 | 23 ft | 7 kts | 42° |
| 2026-05-04 13:26 | 38.85992 | -77.03957 | 23 ft | 0 kts | 13° |
| 2026-05-04 13:27 | 38.86000 | -77.03956 | 23 ft | 2 kts | 11° |
| 2026-05-04 13:28 | 38.86021 | -77.03949 | 23 ft | 4 kts | 15° |
| 2026-05-04 13:28 | 38.86055 | -77.03935 | 23 ft | 5 kts | 21° |
| 2026-05-04 13:28 | 38.86084 | -77.03893 | 23 ft | 7 kts | 91° |
| 2026-05-04 13:28 | 38.86056 | -77.03867 | 23 ft | 0 kts | 175° |
| 2026-05-04 13:29 | 38.86054 | -77.03866 | 23 ft | 0 kts | 175° |
| 2026-05-04 13:29 | 38.86049 | -77.03866 | 23 ft | 1 kts | 175° |
| 2026-05-04 13:29 | 38.85870 | -77.03848 | 23 ft | 64 kts | 175° |
| 2026-05-04 13:29 | 38.85166 | -77.03778 | 24 ft | 136 kts | 176° |
| 2026-05-04 13:30 | 38.84101 | -77.03663 | 415 ft | 160 kts | 175° |
| 2026-05-04 13:30 | 38.83025 | -77.03528 | 1254 ft | 157 kts | 180° |
| 2026-05-04 13:30 | 38.81956 | -77.03501 | 2114 ft | 155 kts | 185° |
| 2026-05-04 13:30 | 38.80843 | -77.03519 | 2672 ft | 171 kts | 186° |
| 2026-05-04 13:31 | 38.79592 | -77.03535 | 3237 ft | 189 kts | 185° |
| 2026-05-04 13:31 | 38.78209 | -77.03535 | 3789 ft | 210 kts | 185° |
| 2026-05-04 13:31 | 38.76736 | -77.03828 | 4420 ft | 223 kts | 207° |
| 2026-05-04 13:31 | 38.75473 | -77.05046 | 5068 ft | 235 kts | 234° |
| 2026-05-04 13:32 | 38.74784 | -77.06958 | 5746 ft | 248 kts | 261° |
| 2026-05-04 13:32 | 38.74660 | -77.09148 | 6711 ft | 252 kts | 267° |
| 2026-05-04 13:32 | 38.74522 | -77.11381 | 7754 ft | 254 kts | 263° |
| 2026-05-04 13:32 | 38.74120 | -77.13578 | 8742 ft | 259 kts | 253° |
| 2026-05-04 13:33 | 38.73441 | -77.15681 | 9678 ft | 263 kts | 248° |
| 2026-05-04 13:33 | 38.72664 | -77.17789 | 10575 ft | 268 kts | 248° |
| 2026-05-04 13:33 | 38.71826 | -77.20019 | 11147 ft | 286 kts | 246° |
| 2026-05-04 13:33 | 38.70855 | -77.22302 | 11611 ft | 305 kts | 243° |
| 2026-05-04 13:34 | 38.69678 | -77.24647 | 12271 ft | 317 kts | 239° |
| 2026-05-04 13:34 | 38.68409 | -77.26921 | 13098 ft | 321 kts | 238° |
| 2026-05-04 13:34 | 38.67100 | -77.29251 | 13903 ft | 325 kts | 239° |
| 2026-05-04 13:34 | 38.65780 | -77.31605 | 14654 ft | 330 kts | 239° |
| 2026-05-04 13:35 | 38.64449 | -77.33977 | 15444 ft | 333 kts | 239° |
| 2026-05-04 13:35 | 38.61725 | -77.38827 | 16970 ft | 340 kts | 239° |
| 2026-05-04 13:35 | 38.60348 | -77.41277 | 17690 ft | 343 kts | 239° |
| 2026-05-04 13:36 | 38.58947 | -77.43767 | 18399 ft | 346 kts | 239° |
| 2026-05-04 13:36 | 38.57552 | -77.46245 | 19092 ft | 349 kts | 239° |
| 2026-05-04 13:36 | 38.56135 | -77.48764 | 19733 ft | 353 kts | 239° |
| 2026-05-04 13:36 | 38.54690 | -77.51326 | 20363 ft | 357 kts | 239° |
| 2026-05-04 13:37 | 38.53230 | -77.53913 | 20993 ft | 361 kts | 240° |
| 2026-05-04 13:37 | 38.51764 | -77.56510 | 21600 ft | 365 kts | 240° |
| 2026-05-04 13:37 | 38.50272 | -77.59148 | 22217 ft | 368 kts | 240° |
| 2026-05-04 13:37 | 38.49268 | -77.60922 | 22628 ft | 370 kts | 240° |
| 2026-05-04 13:38 | 38.47243 | -77.64502 | 23375 ft | 376 kts | 240° |
| 2026-05-04 13:38 | 38.45703 | -77.67155 | 23947 ft | 380 kts | 237° |
| 2026-05-04 13:38 | 38.43993 | -77.69785 | 24498 ft | 385 kts | 234° |
| 2026-05-04 13:38 | 38.42237 | -77.72367 | 25010 ft | 389 kts | 234° |
| 2026-05-04 13:39 | 38.40470 | -77.74956 | 25533 ft | 392 kts | 234° |
| 2026-05-04 13:39 | 38.38666 | -77.77595 | 26055 ft | 395 kts | 234° |
| 2026-05-04 13:39 | 38.36855 | -77.80249 | 26542 ft | 398 kts | 235° |
| 2026-05-04 13:39 | 38.35077 | -77.82949 | 27030 ft | 400 kts | 236° |
| 2026-05-04 13:40 | 38.33313 | -77.85670 | 27504 ft | 402 kts | 237° |
| 2026-05-04 13:40 | 38.31547 | -77.88398 | 27980 ft | 404 kts | 237° |
| 2026-05-04 13:40 | 38.29752 | -77.91166 | 28446 ft | 405 kts | 236° |
| 2026-05-04 13:40 | 38.27958 | -77.93925 | 28894 ft | 407 kts | 236° |
| 2026-05-04 13:41 | 38.26157 | -77.96689 | 29311 ft | 410 kts | 236° |
| 2026-05-04 13:41 | 38.24332 | -77.99485 | 29704 ft | 412 kts | 237° |
| 2026-05-04 13:41 | 38.22497 | -78.02292 | 30126 ft | 414 kts | 237° |
| 2026-05-04 13:42 | 38.18807 | -78.07928 | 30871 ft | 418 kts | 237° |
| 2026-05-04 13:42 | 38.16946 | -78.10765 | 31304 ft | 417 kts | 237° |
| 2026-05-04 13:42 | 38.15103 | -78.13572 | 31790 ft | 415 kts | 237° |
| 2026-05-04 13:42 | 38.13251 | -78.16392 | 32247 ft | 414 kts | 237° |
| 2026-05-04 13:43 | 38.11435 | -78.19151 | 32643 ft | 413 kts | 237° |
| 2026-05-04 13:43 | 38.09604 | -78.21936 | 33056 ft | 412 kts | 237° |
| 2026-05-04 13:43 | 38.07749 | -78.24757 | 33474 ft | 411 kts | 237° |
| 2026-05-04 13:43 | 38.05958 | -78.27511 | 33857 ft | 410 kts | 238° |
| 2026-05-04 13:44 | 38.04166 | -78.30308 | 34191 ft | 410 kts | 238° |
| 2026-05-04 13:44 | 38.02359 | -78.33139 | 34527 ft | 410 kts | 238° |
| 2026-05-04 13:44 | 38.00576 | -78.35927 | 34777 ft | 411 kts | 238° |
| 2026-05-04 13:44 | 37.98770 | -78.38744 | 35008 ft | 412 kts | 238° |
| 2026-05-04 13:45 | 37.96973 | -78.41544 | 35213 ft | 413 kts | 238° |
| 2026-05-04 13:45 | 37.95168 | -78.44352 | 35441 ft | 413 kts | 237° |
| 2026-05-04 13:45 | 37.93354 | -78.47169 | 35656 ft | 413 kts | 237° |
| 2026-05-04 13:45 | 37.91534 | -78.49993 | 35849 ft | 414 kts | 237° |
| 2026-05-04 13:46 | 37.89723 | -78.52800 | 35992 ft | 415 kts | 237° |
| 2026-05-04 13:46 | 37.87902 | -78.55617 | 36015 ft | 415 kts | 237° |
| 2026-05-04 13:46 | 37.84252 | -78.61258 | 36022 ft | 416 kts | 237° |
| 2026-05-04 13:47 | 37.80593 | -78.66905 | 36030 ft | 415 kts | 236° |
| 2026-05-04 13:47 | 37.76918 | -78.72567 | 36027 ft | 415 kts | 236° |
| 2026-05-04 13:48 | 37.73074 | -78.78008 | 36038 ft | 420 kts | 231° |
| 2026-05-04 13:48 | 37.68745 | -78.82961 | 36037 ft | 424 kts | 225° |
| 2026-05-04 13:49 | 37.64027 | -78.87455 | 36034 ft | 426 kts | 223° |
| 2026-05-04 13:49 | 37.59261 | -78.91911 | 36036 ft | 425 kts | 223° |
| 2026-05-04 13:50 | 37.54557 | -78.96300 | 36046 ft | 424 kts | 224° |
| 2026-05-04 13:50 | 37.49815 | -79.00721 | 36051 ft | 424 kts | 223° |
| 2026-05-04 13:51 | 37.45060 | -79.05141 | 36038 ft | 423 kts | 223° |
| 2026-05-04 13:51 | 37.40263 | -79.09442 | 36059 ft | 425 kts | 222° |
| 2026-05-04 13:52 | 37.33018 | -79.15731 | 36052 ft | 424 kts | 222° |
| 2026-05-04 13:53 | 37.28179 | -79.19946 | 36054 ft | 424 kts | 222° |
| 2026-05-04 13:53 | 37.23346 | -79.24174 | 36057 ft | 423 kts | 223° |
| 2026-05-04 13:54 | 37.16234 | -79.30607 | 36052 ft | 421 kts | 223° |
| 2026-05-04 13:55 | 37.09114 | -79.37027 | 36054 ft | 420 kts | 223° |
| 2026-05-04 13:55 | 37.01984 | -79.43429 | 36047 ft | 421 kts | 224° |
| 2026-05-04 13:56 | 36.97167 | -79.47554 | 36039 ft | 422 kts | 222° |
| 2026-05-04 13:57 | 36.89861 | -79.53690 | 36042 ft | 420 kts | 222° |
| 2026-05-04 13:58 | 36.80170 | -79.61845 | 35819 ft | 423 kts | 222° |
| 2026-05-04 13:58 | 36.75303 | -79.65926 | 34424 ft | 431 kts | 222° |
| 2026-05-04 13:58 | 36.72812 | -79.68014 | 33499 ft | 435 kts | 222° |
| 2026-05-04 13:59 | 36.70285 | -79.70132 | 32565 ft | 439 kts | 222° |
| 2026-05-04 13:59 | 36.67750 | -79.72254 | 31619 ft | 443 kts | 222° |
| 2026-05-04 13:59 | 36.62645 | -79.76515 | 30012 ft | 440 kts | 222° |
| 2026-05-04 14:00 | 36.60110 | -79.78622 | 29485 ft | 432 kts | 221° |
| 2026-05-04 14:00 | 36.55217 | -79.82693 | 28404 ft | 420 kts | 222° |
| 2026-05-04 14:00 | 36.52815 | -79.84692 | 27886 ft | 414 kts | 222° |
| 2026-05-04 14:01 | 36.50443 | -79.86665 | 27418 ft | 408 kts | 221° |
| 2026-05-04 14:01 | 36.48090 | -79.88622 | 27075 ft | 405 kts | 222° |
| 2026-05-04 14:01 | 36.43414 | -79.92510 | 26019 ft | 402 kts | 221° |
| 2026-05-04 14:02 | 36.41114 | -79.94416 | 25488 ft | 398 kts | 221° |
| 2026-05-04 14:02 | 36.38853 | -79.96287 | 25001 ft | 393 kts | 221° |
| 2026-05-04 14:02 | 36.36581 | -79.98167 | 24487 ft | 388 kts | 221° |
| 2026-05-04 14:02 | 36.34343 | -80.00018 | 24117 ft | 385 kts | 221° |
| 2026-05-04 14:03 | 36.32108 | -80.01867 | 24056 ft | 385 kts | 221° |
| 2026-05-04 14:03 | 36.29909 | -80.03684 | 23814 ft | 381 kts | 221° |
| 2026-05-04 14:03 | 36.27702 | -80.05504 | 23187 ft | 380 kts | 221° |
| 2026-05-04 14:03 | 36.25527 | -80.07297 | 22567 ft | 379 kts | 220° |
| 2026-05-04 14:04 | 36.21182 | -80.10876 | 21498 ft | 372 kts | 220° |
| 2026-05-04 14:04 | 36.19041 | -80.12634 | 20982 ft | 369 kts | 220° |
| 2026-05-04 14:04 | 36.16920 | -80.14378 | 20483 ft | 365 kts | 220° |
| 2026-05-04 14:05 | 36.12727 | -80.17825 | 19371 ft | 361 kts | 220° |
| 2026-05-04 14:05 | 36.10658 | -80.19524 | 18843 ft | 359 kts | 220° |
| 2026-05-04 14:05 | 36.08577 | -80.21228 | 18369 ft | 355 kts | 220° |
| 2026-05-04 14:06 | 36.06543 | -80.22894 | 17943 ft | 350 kts | 220° |
| 2026-05-04 14:06 | 36.04532 | -80.24539 | 17538 ft | 345 kts | 220° |
| 2026-05-04 14:06 | 36.02542 | -80.26169 | 17122 ft | 341 kts | 220° |
| 2026-05-04 14:06 | 36.00576 | -80.27777 | 16707 ft | 338 kts | 220° |
| 2026-05-04 14:07 | 35.98629 | -80.29370 | 16282 ft | 334 kts | 220° |
| 2026-05-04 14:07 | 35.96703 | -80.30945 | 15907 ft | 330 kts | 219° |
| 2026-05-04 14:07 | 35.94804 | -80.32497 | 15414 ft | 331 kts | 219° |
| 2026-05-04 14:07 | 35.92871 | -80.34077 | 14950 ft | 330 kts | 219° |
| 2026-05-04 14:08 | 35.90962 | -80.35635 | 14481 ft | 329 kts | 219° |
| 2026-05-04 14:08 | 35.89080 | -80.37170 | 14031 ft | 327 kts | 219° |
| 2026-05-04 14:08 | 35.87175 | -80.38721 | 13591 ft | 325 kts | 219° |
| 2026-05-04 14:08 | 35.85303 | -80.40241 | 13366 ft | 315 kts | 219° |
| 2026-05-04 14:09 | 35.81867 | -80.43218 | 13004 ft | 295 kts | 224° |
| 2026-05-04 14:09 | 35.80254 | -80.44778 | 12611 ft | 293 kts | 224° |
| 2026-05-04 14:10 | 35.77067 | -80.47868 | 11870 ft | 289 kts | 224° |
| 2026-05-04 14:10 | 35.75476 | -80.49332 | 11519 ft | 289 kts | 219° |
| 2026-05-04 14:10 | 35.73666 | -80.50491 | 11154 ft | 293 kts | 208° |
| 2026-05-04 14:10 | 35.71753 | -80.51303 | 10963 ft | 295 kts | 204° |
| 2026-05-04 14:11 | 35.69790 | -80.52054 | 10559 ft | 298 kts | 203° |
| 2026-05-04 14:11 | 35.65831 | -80.53547 | 9744 ft | 296 kts | 202° |
| 2026-05-04 14:11 | 35.63857 | -80.54299 | 9373 ft | 293 kts | 202° |
| 2026-05-04 14:12 | 35.61927 | -80.55040 | 9015 ft | 290 kts | 202° |
| 2026-05-04 14:12 | 35.59994 | -80.55782 | 8715 ft | 285 kts | 202° |
| 2026-05-04 14:12 | 35.57052 | -80.58226 | 8416 ft | 245 kts | 252° |
| 2026-05-04 14:13 | 35.56792 | -80.60232 | 8106 ft | 237 kts | 274° |
| 2026-05-04 14:13 | 35.56836 | -80.62251 | 7804 ft | 235 kts | 274° |
| 2026-05-04 14:13 | 35.56852 | -80.64255 | 7503 ft | 234 kts | 273° |
| 2026-05-04 14:13 | 35.56850 | -80.66233 | 7211 ft | 232 kts | 272° |
| 2026-05-04 14:14 | 35.56837 | -80.68201 | 6920 ft | 231 kts | 271° |
| 2026-05-04 14:14 | 35.56798 | -80.72105 | 6341 ft | 228 kts | 271° |
| 2026-05-04 14:14 | 35.56776 | -80.74039 | 6065 ft | 226 kts | 271° |
| 2026-05-04 14:15 | 35.56565 | -80.77691 | 5946 ft | 204 kts | 255° |
| 2026-05-04 14:15 | 35.55502 | -80.80774 | 5961 ft | 185 kts | 250° |
| 2026-05-04 14:16 | 35.54500 | -80.83668 | 5978 ft | 183 kts | 251° |
| 2026-05-04 14:16 | 35.54023 | -80.85117 | 5976 ft | 183 kts | 252° |
| 2026-05-04 14:17 | 35.53086 | -80.88017 | 5975 ft | 183 kts | 252° |
| 2026-05-04 14:17 | 35.52622 | -80.89466 | 5984 ft | 183 kts | 252° |
| 2026-05-04 14:17 | 35.51688 | -80.92383 | 5974 ft | 183 kts | 252° |
| 2026-05-04 14:18 | 35.51225 | -80.93832 | 5981 ft | 183 kts | 252° |
| 2026-05-04 14:18 | 35.50184 | -80.96687 | 5960 ft | 188 kts | 230° |
| 2026-05-04 14:19 | 35.47640 | -80.97581 | 5537 ft | 203 kts | 180° |
| 2026-05-04 14:19 | 35.46229 | -80.97437 | 5265 ft | 204 kts | 178° |
| 2026-05-04 14:19 | 35.44823 | -80.97258 | 5069 ft | 198 kts | 178° |
| 2026-05-04 14:19 | 35.43469 | -80.97101 | 4787 ft | 196 kts | 178° |
| 2026-05-04 14:20 | 35.42111 | -80.96963 | 4505 ft | 193 kts | 179° |
| 2026-05-04 14:20 | 35.40791 | -80.96844 | 4234 ft | 191 kts | 179° |
| 2026-05-04 14:20 | 35.39475 | -80.96732 | 3967 ft | 187 kts | 179° |
| 2026-05-04 14:21 | 35.36991 | -80.96524 | 3465 ft | 169 kts | 179° |
| 2026-05-04 14:21 | 35.35848 | -80.96428 | 3241 ft | 159 kts | 180° |
| 2026-05-04 14:21 | 35.34781 | -80.96339 | 3036 ft | 149 kts | 179° |
| 2026-05-04 14:21 | 35.33763 | -80.96255 | 2876 ft | 146 kts | 179° |
| 2026-05-04 14:22 | 35.32741 | -80.96170 | 2697 ft | 146 kts | 179° |
| 2026-05-04 14:22 | 35.31741 | -80.96085 | 2516 ft | 139 kts | 179° |
| 2026-05-04 14:22 | 35.30806 | -80.96004 | 2318 ft | 131 kts | 179° |
| 2026-05-04 14:22 | 35.29904 | -80.95929 | 2149 ft | 130 kts | 179° |
| 2026-05-04 14:23 | 35.28095 | -80.95775 | 1808 ft | 130 kts | 178° |
| 2026-05-04 14:23 | 35.27186 | -80.95697 | 1631 ft | 129 kts | 178° |
| 2026-05-04 14:23 | 35.26294 | -80.95621 | 1456 ft | 129 kts | 178° |
| 2026-05-04 14:24 | 35.25394 | -80.95544 | 1282 ft | 129 kts | 177° |
| 2026-05-04 14:24 | 35.24496 | -80.95467 | 1111 ft | 128 kts | 177° |
| 2026-05-04 14:24 | 35.23600 | -80.95387 | 946 ft | 128 kts | 176° |
| 2026-05-04 14:24 | 35.22718 | -80.95312 | 767 ft | 127 kts | 176° |
| 2026-05-04 14:25 | 35.21901 | -80.95243 | 727 ft | 97 kts | 176° |
| 2026-05-04 14:25 | 35.21188 | -80.95176 | 711 ft | 11 kts | 161° |
| 2026-05-04 14:25 | 35.21158 | -80.95096 | 709 ft | 12 kts | 84° |
| 2026-05-04 14:26 | 35.21161 | -80.95013 | 707 ft | 0 kts | 87° |
| 2026-05-04 14:28 | 35.21162 | -80.94995 | 707 ft | 4 kts | 87° |
| 2026-05-04 14:28 | 35.21177 | -80.94938 | 706 ft | 9 kts | 59° |
| 2026-05-04 14:28 | 35.21227 | -80.94864 | 706 ft | 12 kts | 46° |
| 2026-05-04 14:29 | 35.21320 | -80.94666 | 707 ft | 14 kts | 75° |
| 2026-05-04 14:29 | 35.21416 | -80.94484 | 711 ft | 11 kts | 50° |
| 2026-05-04 14:30 | 35.21465 | -80.94417 | 714 ft | 9 kts | 52° |
| 2026-05-04 14:30 | 35.21503 | -80.94361 | 717 ft | 7 kts | 46° |
| 2026-05-04 14:30 | 35.21567 | -80.94270 | 720 ft | 7 kts | 52° |
| 2026-05-04 14:31 | 35.21602 | -80.94225 | 721 ft | 7 kts | 45° |
| 2026-05-04 14:31 | 35.21666 | -80.94135 | 724 ft | 6 kts | 49° |
| 2026-05-04 14:32 | 35.21732 | -80.94041 | 727 ft | 8 kts | 47° |
| 2026-05-04 14:32 | 35.21772 | -80.93990 | 729 ft | 8 kts | 47° |
| 2026-05-04 14:32 | 35.21814 | -80.93934 | 731 ft | 9 kts | 46° |
| 2026-05-04 14:32 | 35.21861 | -80.93873 | 732 ft | 10 kts | 48° |
| 2026-05-04 14:33 | 35.21913 | -80.93800 | 734 ft | 12 kts | 49° |
| 2026-05-04 14:33 | 35.21965 | -80.93729 | 735 ft | 9 kts | 41° |
| 2026-05-04 14:33 | 35.22030 | -80.93712 | 736 ft | 10 kts | 353° |
| 2026-05-04 14:33 | 35.22100 | -80.93720 | 737 ft | 10 kts | 358° |
| 2026-05-04 14:34 | 35.22173 | -80.93722 | 739 ft | 10 kts | 357° |
| 2026-05-04 14:34 | 35.22252 | -80.93732 | 739 ft | 12 kts | 355° |
| 2026-05-04 14:34 | 35.22341 | -80.93740 | 738 ft | 12 kts | 356° |
| 2026-05-04 14:34 | 35.22398 | -80.93769 | 738 ft | 8 kts | 288° |
| 2026-05-04 14:35 | 35.22411 | -80.93832 | 737 ft | 9 kts | 317° |
| 2026-05-04 14:35 | 35.22453 | -80.93897 | 735 ft | 10 kts | 293° |
| 2026-05-04 14:35 | 35.22437 | -80.93951 | 734 ft | 5 kts | 203° |
| 2026-05-04 14:35 | 35.22418 | -80.93960 | 734 ft | 1 kts | 220° |
| 2026-05-04 14:36 | 35.22404 | -80.93986 | 734 ft | 2 kts | 249° |
| 2026-05-04 14:36 | 35.22401 | -80.93998 | 733 ft | 2 kts | 253° |
| 2026-05-04 14:36 | 35.22400 | -80.94004 | 733 ft | 0 kts | 256° |
| 2026-05-04 14:36 | 35.22400 | -80.94005 | 733 ft | 0 kts | 256° |